sensor_id;sensor_type;location;lat;lon;timestamp;pressure;altitude;pressure_sealevel;temperature;humidity
27643;BME280;15053;48.618;10.024;2023-08-08T00:02:01;94470.25;;;11.59;81.32
27643;BME280;15053;48.618;10.024;2023-08-08T00:04:27;94464.25;;;11.58;81.25
27643;BME280;15053;48.618;10.024;2023-08-08T00:06:54;94474.69;;;11.58;81.29
27643;BME280;15053;48.618;10.024;2023-08-08T00:09:20;94472.34;;;11.57;81.27
27643;BME280;15053;48.618;10.024;2023-08-08T00:11:47;94469.25;;;11.55;81.83
27643;BME280;15053;48.618;10.024;2023-08-08T00:14:15;94468.69;;;11.58;81.43
27643;BME280;15053;48.618;10.024;2023-08-08T00:16:41;94468.47;;;11.54;81.78
27643;BME280;15053;48.618;10.024;2023-08-08T00:19:08;94465.19;;;11.49;81.90
27643;BME280;15053;48.618;10.024;2023-08-08T00:21:34;94465.94;;;11.49;81.81
27643;BME280;15053;48.618;10.024;2023-08-08T00:24:01;94469.91;;;11.47;81.72
27643;BME280;15053;48.618;10.024;2023-08-08T00:26:27;94466.03;;;11.44;81.83
27643;BME280;15053;48.618;10.024;2023-08-08T00:28:54;94468.16;;;11.42;82.02
27643;BME280;15053;48.618;10.024;2023-08-08T00:31:20;94471.53;;;11.43;82.23
27643;BME280;15053;48.618;10.024;2023-08-08T00:33:47;94457.91;;;11.46;82.07
27643;BME280;15053;48.618;10.024;2023-08-08T00:36:14;94458.78;;;11.41;82.09
27643;BME280;15053;48.618;10.024;2023-08-08T00:38:40;94465.56;;;11.42;81.99
27643;BME280;15053;48.618;10.024;2023-08-08T00:41:07;94466.91;;;11.40;81.69
27643;BME280;15053;48.618;10.024;2023-08-08T00:43:33;94467.47;;;11.37;82.25
27643;BME280;15053;48.618;10.024;2023-08-08T00:46:00;94459.44;;;11.33;82.20
27643;BME280;15053;48.618;10.024;2023-08-08T00:48:27;94462.34;;;11.32;82.09
27643;BME280;15053;48.618;10.024;2023-08-08T00:50:54;94465.72;;;11.32;82.65
27643;BME280;15053;48.618;10.024;2023-08-08T00:53:21;94465.53;;;11.29;82.62
27643;BME280;15053;48.618;10.024;2023-08-08T00:55:49;94474.31;;;11.33;82.88
27643;BME280;15053;48.618;10.024;2023-08-08T00:58:16;94469.41;;;11.31;82.66
27643;BME280;15053;48.618;10.024;2023-08-08T01:00:42;94466.28;;;11.29;82.93
27643;BME280;15053;48.618;10.024;2023-08-08T01:03:09;94473.81;;;11.31;82.93
27643;BME280;15053;48.618;10.024;2023-08-08T01:05:42;94468.63;;;11.31;82.80
27643;BME280;15053;48.618;10.024;2023-08-08T01:08:11;94466.28;;;11.29;82.91
27643;BME280;15053;48.618;10.024;2023-08-08T01:10:41;94467.63;;;11.26;82.73
27643;BME280;15053;48.618;10.024;2023-08-08T01:13:15;94467.91;;;11.25;83.14
27643;BME280;15053;48.618;10.024;2023-08-08T01:15:44;94465.00;;;11.26;82.79
27643;BME280;15053;48.618;10.024;2023-08-08T01:18:12;94464.53;;;11.24;83.45
27643;BME280;15053;48.618;10.024;2023-08-08T01:20:42;94464.53;;;11.24;83.07
27643;BME280;15053;48.618;10.024;2023-08-08T01:23:19;94458.28;;;11.25;82.97
27643;BME280;15053;48.618;10.024;2023-08-08T01:25:50;94454.88;;;11.25;83.72
27643;BME280;15053;48.618;10.024;2023-08-08T01:28:23;94453.06;;;11.25;83.50
27643;BME280;15053;48.618;10.024;2023-08-08T01:30:50;94449.09;;;11.28;83.72
27643;BME280;15053;48.618;10.024;2023-08-08T01:33:17;94445.41;;;11.29;83.60
27643;BME280;15053;48.618;10.024;2023-08-08T01:35:50;94438.38;;;11.30;83.77
27643;BME280;15053;48.618;10.024;2023-08-08T01:38:30;94440.19;;;11.29;83.55
27643;BME280;15053;48.618;10.024;2023-08-08T01:40:59;94441.75;;;11.30;83.83
27643;BME280;15053;48.618;10.024;2023-08-08T01:43:26;94445.16;;;11.31;83.54
27643;BME280;15053;48.618;10.024;2023-08-08T01:45:53;94436.06;;;11.28;83.71
27643;BME280;15053;48.618;10.024;2023-08-08T01:48:20;94441.19;;;11.33;84.07
27643;BME280;15053;48.618;10.024;2023-08-08T01:50:48;94435.19;;;11.33;83.69
27643;BME280;15053;48.618;10.024;2023-08-08T01:53:14;94428.94;;;11.34;83.64
27643;BME280;15053;48.618;10.024;2023-08-08T01:55:42;94428.72;;;11.30;83.82
27643;BME280;15053;48.618;10.024;2023-08-08T01:58:08;94422.38;;;11.36;84.01
27643;BME280;15053;48.618;10.024;2023-08-08T10:00:36;94354.19;;;19.14;53.56
27643;BME280;15053;48.618;10.024;2023-08-08T10:03:03;94337.22;;;19.15;52.96
27643;BME280;15053;48.618;10.024;2023-08-08T10:05:30;94350.66;;;19.10;52.60
27643;BME280;15053;48.618;10.024;2023-08-08T10:07:57;94335.19;;;19.08;52.24
27643;BME280;15053;48.618;10.024;2023-08-08T10:10:24;94345.06;;;19.11;50.59
27643;BME280;15053;48.618;10.024;2023-08-08T10:12:50;94363.50;;;18.96;50.22
27643;BME280;15053;48.618;10.024;2023-08-08T10:15:18;94353.53;;;18.89;50.61
27643;BME280;15053;48.618;10.024;2023-08-08T10:17:45;94342.97;;;18.89;50.85
27643;BME280;15053;48.618;10.024;2023-08-08T10:20:12;94352.59;;;18.97;51.92
27643;BME280;15053;48.618;10.024;2023-08-08T10:22:43;94354.34;;;19.21;52.13
27643;BME280;15053;48.618;10.024;2023-08-08T10:25:25;94343.78;;;19.21;49.94
27643;BME280;15053;48.618;10.024;2023-08-08T10:30:57;94337.34;;;19.34;49.40
27643;BME280;15053;48.618;10.024;2023-08-08T10:33:26;94345.75;;;19.08;49.66
27643;BME280;15053;48.618;10.024;2023-08-08T10:38:23;94359.88;;;19.16;49.55
27643;BME280;15053;48.618;10.024;2023-08-08T10:41:02;94337.34;;;19.34;49.70
27643;BME280;15053;48.618;10.024;2023-08-08T10:43:30;94348.75;;;19.50;49.26
27643;BME280;15053;48.618;10.024;2023-08-08T10:46:01;94324.44;;;19.60;48.69
27643;BME280;15053;48.618;10.024;2023-08-08T10:48:50;94317.94;;;19.73;49.19
27643;BME280;15053;48.618;10.024;2023-08-08T10:51:17;94320.94;;;19.87;49.18
27643;BME280;15053;48.618;10.024;2023-08-08T10:53:43;94322.72;;;19.99;48.87
27643;BME280;15053;48.618;10.024;2023-08-08T10:56:12;94318.94;;;20.00;47.63
27643;BME280;15053;48.618;10.024;2023-08-08T10:58:41;94316.38;;;20.03;47.85
27643;BME280;15053;48.618;10.024;2023-08-08T11:01:08;94315.19;;;20.01;47.98
27643;BME280;15053;48.618;10.024;2023-08-08T11:03:40;94321.94;;;19.98;47.54
27643;BME280;15053;48.618;10.024;2023-08-08T11:06:08;94331.16;;;20.05;46.11
27643;BME280;15053;48.618;10.024;2023-08-08T11:08:36;94335.06;;;20.11;46.52
27643;BME280;15053;48.618;10.024;2023-08-08T11:11:05;94324.22;;;20.16;45.77
27643;BME280;15053;48.618;10.024;2023-08-08T11:13:33;94342.66;;;20.12;45.17
27643;BME280;15053;48.618;10.024;2023-08-08T11:16:00;94314.53;;;19.88;45.25
27643;BME280;15053;48.618;10.024;2023-08-08T11:18:29;94315.19;;;20.01;44.78
27643;BME280;15053;48.618;10.024;2023-08-08T11:20:56;94311.69;;;20.13;44.46
27643;BME280;15053;48.618;10.024;2023-08-08T11:23:46;94327.78;;;20.23;44.83
27643;BME280;15053;48.618;10.024;2023-08-08T11:26:12;94313.13;;;20.26;45.07
27643;BME280;15053;48.618;10.024;2023-08-08T11:28:49;94318.56;;;20.33;44.95
27643;BME280;15053;48.618;10.024;2023-08-08T11:31:18;94312.66;;;20.39;42.16
27643;BME280;15053;48.618;10.024;2023-08-08T11:33:47;94309.66;;;20.41;41.00
27643;BME280;15053;48.618;10.024;2023-08-08T11:36:14;94320.69;;;20.27;42.05
27643;BME280;15053;48.618;10.024;2023-08-08T11:38:42;94319.69;;;20.32;43.01
27643;BME280;15053;48.618;10.024;2023-08-08T11:41:10;94334.28;;;20.26;43.80
27643;BME280;15053;48.618;10.024;2023-08-08T11:43:38;94316.88;;;20.25;43.82
27643;BME280;15053;48.618;10.024;2023-08-08T11:46:11;94318.16;;;20.50;43.66
27643;BME280;15053;48.618;10.024;2023-08-08T11:48:39;94299.03;;;20.76;43.01
27643;BME280;15053;48.618;10.024;2023-08-08T11:51:07;94300.47;;;20.92;42.04
27643;BME280;15053;48.618;10.024;2023-08-08T11:53:34;94308.97;;;21.01;41.57
27643;BME280;15053;48.618;10.024;2023-08-08T11:56:02;94297.25;;;21.02;40.41
27643;BME280;15053;48.618;10.024;2023-08-08T11:58:30;94298.81;;;21.03;39.85
27643;BME280;15053;48.618;10.024;2023-08-08T12:00:57;94294.78;;;21.09;40.34
27643;BME280;15053;48.618;10.024;2023-08-08T12:03:27;94287.66;;;21.13;41.44
27643;BME280;15053;48.618;10.024;2023-08-08T12:05:54;94305.03;;;21.34;41.20
27643;BME280;15053;48.618;10.024;2023-08-08T12:08:21;94291.25;;;21.47;41.26
27643;BME280;15053;48.618;10.024;2023-08-08T12:10:48;94291.66;;;21.72;41.00
27643;BME280;15053;48.618;10.024;2023-08-08T12:13:21;94293.34;;;21.84;40.73
27643;BME280;15053;48.618;10.024;2023-08-08T12:15:48;94294.97;;;21.88;39.67
27643;BME280;15053;48.618;10.024;2023-08-08T12:18:17;94296.34;;;21.82;39.35
27643;BME280;15053;48.618;10.024;2023-08-08T12:20:45;94297.13;;;22.05;39.85
27643;BME280;15053;48.618;10.024;2023-08-08T12:23:12;94284.97;;;22.34;38.95
27643;BME280;15053;48.618;10.024;2023-08-08T12:25:39;94294.44;;;22.61;38.50
27643;BME280;15053;48.618;10.024;2023-08-08T12:28:05;94285.34;;;22.62;37.53
27643;BME280;15053;48.618;10.024;2023-08-08T12:30:32;94293.19;;;22.52;38.11
27643;BME280;15053;48.618;10.024;2023-08-08T12:32:59;94293.84;;;22.45;38.60
27643;BME280;15053;48.618;10.024;2023-08-08T12:35:25;94283.81;;;22.61;39.11
27643;BME280;15053;48.618;10.024;2023-08-08T12:37:53;94283.78;;;22.58;37.76
27643;BME280;15053;48.618;10.024;2023-08-08T12:40:20;94299.44;;;22.66;38.23
27643;BME280;15053;48.618;10.024;2023-08-08T12:42:46;94280.69;;;22.82;37.85
27643;BME280;15053;48.618;10.024;2023-08-08T12:45:14;94277.19;;;22.78;38.48
27643;BME280;15053;48.618;10.024;2023-08-08T12:47:41;94281.41;;;22.53;38.81
27643;BME280;15053;48.618;10.024;2023-08-08T12:50:07;94298.03;;;22.16;38.80
27643;BME280;15053;48.618;10.024;2023-08-08T12:52:34;94284.19;;;21.81;39.01
27643;BME280;15053;48.618;10.024;2023-08-08T12:55:02;94281.63;;;21.62;40.28
27643;BME280;15053;48.618;10.024;2023-08-08T12:57:29;94281.75;;;21.69;41.28
27643;BME280;15053;48.618;10.024;2023-08-08T12:59:55;94281.81;;;21.72;39.80
27643;BME280;15053;48.618;10.024;2023-08-08T13:02:22;94273.50;;;21.74;41.10
27643;BME280;15053;48.618;10.024;2023-08-08T13:04:49;94274.03;;;21.83;41.62
27643;BME280;15053;48.618;10.024;2023-08-08T13:07:16;94269.84;;;21.82;41.13
27643;BME280;15053;48.618;10.024;2023-08-08T13:09:42;94274.34;;;21.78;40.50
27643;BME280;15053;48.618;10.024;2023-08-08T13:12:09;94272.47;;;21.56;39.87
27643;BME280;15053;48.618;10.024;2023-08-08T13:14:35;94273.97;;;21.57;41.37
27643;BME280;15053;48.618;10.024;2023-08-08T13:17:02;94279.09;;;21.69;39.18
27643;BME280;15053;48.618;10.024;2023-08-08T13:19:29;94268.50;;;21.69;38.10
27643;BME280;15053;48.618;10.024;2023-08-08T13:21:56;94275.53;;;21.84;39.52
27643;BME280;15053;48.618;10.024;2023-08-08T13:24:22;94279.84;;;21.92;39.58
27643;BME280;15053;48.618;10.024;2023-08-08T13:26:49;94268.34;;;21.85;40.30
27643;BME280;15053;48.618;10.024;2023-08-08T13:29:16;94278.19;;;21.84;40.52
27643;BME280;15053;48.618;10.024;2023-08-08T13:31:43;94263.59;;;21.71;40.07
27643;BME280;15053;48.618;10.024;2023-08-08T13:34:10;94258.31;;;21.71;39.98
27643;BME280;15053;48.618;10.024;2023-08-08T13:36:37;94265.63;;;21.81;39.59
27643;BME280;15053;48.618;10.024;2023-08-08T13:39:03;94268.13;;;21.93;37.87
27643;BME280;15053;48.618;10.024;2023-08-08T13:41:30;94261.94;;;22.12;37.04
27643;BME280;15053;48.618;10.024;2023-08-08T13:43:57;94249.31;;;22.31;37.15
27643;BME280;15053;48.618;10.024;2023-08-08T13:46:23;94250.53;;;22.38;37.40
27643;BME280;15053;48.618;10.024;2023-08-08T13:48:50;94267.81;;;22.54;36.75
27643;BME280;15053;48.618;10.024;2023-08-08T13:51:17;94269.19;;;22.74;35.85
27643;BME280;15053;48.618;10.024;2023-08-08T13:53:43;94266.00;;;22.95;36.67
27643;BME280;15053;48.618;10.024;2023-08-08T13:56:11;94261.28;;;23.15;36.55
27643;BME280;15053;48.618;10.024;2023-08-08T13:58:38;94263.03;;;23.40;35.94
27643;BME280;15053;48.618;10.024;2023-08-08T14:01:04;94256.91;;;23.36;34.80
27643;BME280;15053;48.618;10.024;2023-08-08T14:03:31;94249.50;;;23.16;35.46
27643;BME280;15053;48.618;10.024;2023-08-08T14:05:58;94255.44;;;22.65;36.00
27643;BME280;15053;48.618;10.024;2023-08-08T14:08:24;94251.56;;;22.29;36.49
27643;BME280;15053;48.618;10.024;2023-08-08T14:10:51;94248.94;;;22.03;37.23
27643;BME280;15053;48.618;10.024;2023-08-08T14:13:17;94242.91;;;22.06;38.32
27643;BME280;15053;48.618;10.024;2023-08-08T14:15:45;94251.88;;;22.24;38.38
27643;BME280;15053;48.618;10.024;2023-08-08T14:18:12;94258.50;;;22.38;39.09
27643;BME280;15053;48.618;10.024;2023-08-08T14:20:39;94246.00;;;22.68;38.33
27643;BME280;15053;48.618;10.024;2023-08-08T14:23:05;94257.81;;;22.74;37.22
27643;BME280;15053;48.618;10.024;2023-08-08T14:25:32;94257.66;;;22.33;37.15
27643;BME280;15053;48.618;10.024;2023-08-08T14:27:59;94254.41;;;21.88;37.29
27643;BME280;15053;48.618;10.024;2023-08-08T14:30:27;94251.50;;;21.47;38.09
27643;BME280;15053;48.618;10.024;2023-08-08T14:32:54;94253.84;;;21.07;39.22
27643;BME280;15053;48.618;10.024;2023-08-08T14:35:20;94260.91;;;20.80;40.24
27643;BME280;15053;48.618;10.024;2023-08-08T14:37:47;94261.97;;;20.56;40.55
27643;BME280;15053;48.618;10.024;2023-08-08T14:40:13;94265.31;;;20.34;41.30
27643;BME280;15053;48.618;10.024;2023-08-08T14:42:40;94261.34;;;20.09;41.71
27643;BME280;15053;48.618;10.024;2023-08-08T14:45:07;94259.94;;;19.96;42.47
27643;BME280;15053;48.618;10.024;2023-08-08T14:47:33;94261.91;;;19.83;42.75
27643;BME280;15053;48.618;10.024;2023-08-08T14:50:00;94268.94;;;19.76;43.70
27643;BME280;15053;48.618;10.024;2023-08-08T14:52:27;94273.72;;;19.70;44.04
27643;BME280;15053;48.618;10.024;2023-08-08T14:54:53;94264.34;;;19.57;44.27
27643;BME280;15053;48.618;10.024;2023-08-08T14:57:20;94271.41;;;19.53;44.92
27643;BME280;15053;48.618;10.024;2023-08-08T14:59:46;94267.16;;;19.49;45.16
27643;BME280;15053;48.618;10.024;2023-08-08T15:02:13;94271.16;;;19.42;45.27
27643;BME280;15053;48.618;10.024;2023-08-08T15:04:40;94261.28;;;19.39;45.51
27643;BME280;15053;48.618;10.024;2023-08-08T15:07:06;94276.00;;;19.56;45.87
27643;BME280;15053;48.618;10.024;2023-08-08T15:09:33;94276.75;;;19.72;45.77
27643;BME280;15053;48.618;10.024;2023-08-08T15:11:59;94273.53;;;19.79;46.14
27643;BME280;15053;48.618;10.024;2023-08-08T15:14:26;94283.50;;;19.85;46.54
27643;BME280;15053;48.618;10.024;2023-08-08T15:16:52;94269.94;;;19.87;46.73
27643;BME280;15053;48.618;10.024;2023-08-08T15:19:20;94274.88;;;19.88;46.95
27643;BME280;15053;48.618;10.024;2023-08-08T15:21:46;94272.25;;;19.88;46.70
27643;BME280;15053;48.618;10.024;2023-08-08T15:24:13;94272.47;;;19.99;46.53
27643;BME280;15053;48.618;10.024;2023-08-08T15:26:39;94286.25;;;20.08;46.17
27643;BME280;15053;48.618;10.024;2023-08-08T15:29:06;94276.63;;;20.16;46.08
27643;BME280;15053;48.618;10.024;2023-08-08T15:31:33;94272.44;;;20.15;45.58
27643;BME280;15053;48.618;10.024;2023-08-08T15:33:59;94266.22;;;20.07;45.83
27643;BME280;15053;48.618;10.024;2023-08-08T15:36:26;94263.16;;;20.05;46.82
27643;BME280;15053;48.618;10.024;2023-08-08T15:38:53;94266.50;;;20.02;46.63
27643;BME280;15053;48.618;10.024;2023-08-08T15:41:20;94264.88;;;19.97;46.78
27643;BME280;15053;48.618;10.024;2023-08-08T15:43:47;94259.59;;;19.97;47.18
27643;BME280;15053;48.618;10.024;2023-08-08T15:46:13;94255.44;;;19.96;47.40
27643;BME280;15053;48.618;10.024;2023-08-08T15:48:40;94262.41;;;20.05;47.46
27643;BME280;15053;48.618;10.024;2023-08-08T15:51:06;94261.28;;;20.06;46.92
27643;BME280;15053;48.618;10.024;2023-08-08T15:53:33;94261.94;;;20.02;46.91
27643;BME280;15053;48.618;10.024;2023-08-08T15:56:00;94282.97;;;19.95;46.79
27643;BME280;15053;48.618;10.024;2023-08-08T15:58:28;94263.19;;;19.89;47.54
27643;BME280;15053;48.618;10.024;2023-08-08T16:00:54;94270.28;;;19.85;46.69
27643;BME280;15053;48.618;10.024;2023-08-08T16:03:22;94265.69;;;19.82;47.31
27643;BME280;15053;48.618;10.024;2023-08-08T16:05:48;94268.41;;;19.86;47.17
27643;BME280;15053;48.618;10.024;2023-08-08T16:08:15;94264.72;;;19.90;47.08
27643;BME280;15053;48.618;10.024;2023-08-08T16:10:44;94272.25;;;19.88;46.75
27643;BME280;15053;48.618;10.024;2023-08-08T16:13:10;94282.81;;;19.88;47.52
27643;BME280;15053;48.618;10.024;2023-08-08T16:15:37;94286.84;;;19.82;46.99
27643;BME280;15053;48.618;10.024;2023-08-08T16:18:04;94287.69;;;19.71;47.27
27643;BME280;15053;48.618;10.024;2023-08-08T16:20:30;94282.16;;;19.60;47.50
27643;BME280;15053;48.618;10.024;2023-08-08T16:22:57;94281.31;;;19.56;47.68
27643;BME280;15053;48.618;10.024;2023-08-08T16:25:23;94278.34;;;19.58;48.38
27643;BME280;15053;48.618;10.024;2023-08-08T16:27:50;94267.84;;;19.61;48.49
27643;BME280;15053;48.618;10.024;2023-08-08T16:30:17;94282.25;;;19.64;48.45
27643;BME280;15053;48.618;10.024;2023-08-08T16:32:43;94276.19;;;19.63;48.65
27643;BME280;15053;48.618;10.024;2023-08-08T16:35:10;94277.66;;;19.61;49.13
27643;BME280;15053;48.618;10.024;2023-08-08T16:37:36;94265.44;;;19.56;49.35
27643;BME280;15053;48.618;10.024;2023-08-08T16:40:03;94272.53;;;19.52;49.58
27643;BME280;15053;48.618;10.024;2023-08-08T16:42:30;94278.91;;;19.51;49.44
27643;BME280;15053;48.618;10.024;2023-08-08T16:44:57;94280.97;;;19.42;49.67
27643;BME280;15053;48.618;10.024;2023-08-08T16:47:23;94280.34;;;19.33;49.85
27643;BME280;15053;48.618;10.024;2023-08-08T16:49:50;94281.19;;;19.21;50.63
27643;BME280;15053;48.618;10.024;2023-08-08T16:52:16;94283.22;;;19.12;51.06
27643;BME280;15053;48.618;10.024;2023-08-08T16:54:43;94292.59;;;19.10;51.27
27643;BME280;15053;48.618;10.024;2023-08-08T16:57:09;94287.97;;;19.07;51.61
27643;BME280;15053;48.618;10.024;2023-08-08T16:59:38;94284.91;;;19.05;51.59
27643;BME280;15053;48.618;10.024;2023-08-08T17:02:04;94293.84;;;19.00;51.27
27643;BME280;15053;48.618;10.024;2023-08-08T17:04:31;94294.84;;;18.96;51.73
27643;BME280;15053;48.618;10.024;2023-08-08T17:06:58;94298.16;;;18.93;52.42
27643;BME280;15053;48.618;10.024;2023-08-08T17:09:24;94291.28;;;18.88;52.36
27643;BME280;15053;48.618;10.024;2023-08-08T17:11:52;94294.56;;;18.85;52.86
27643;BME280;15053;48.618;10.024;2023-08-08T17:14:18;94298.34;;;18.84;52.88
27643;BME280;15053;48.618;10.024;2023-08-08T17:16:45;94289.91;;;18.78;52.79
27643;BME280;15053;48.618;10.024;2023-08-08T17:19:15;94296.16;;;18.74;53.13
27643;BME280;15053;48.618;10.024;2023-08-08T17:21:42;94305.63;;;18.75;53.14
27643;BME280;15053;48.618;10.024;2023-08-08T17:24:08;94305.88;;;18.70;53.40
27643;BME280;15053;48.618;10.024;2023-08-08T17:26:36;94305.34;;;18.64;53.73
27643;BME280;15053;48.618;10.024;2023-08-08T17:29:03;94297.31;;;18.61;53.43
27643;BME280;15053;48.618;10.024;2023-08-08T17:31:30;94299.78;;;18.54;54.37
27643;BME280;15053;48.618;10.024;2023-08-08T17:33:56;94315.50;;;18.50;54.13
27643;BME280;15053;48.618;10.024;2023-08-08T17:36:25;94318.34;;;18.45;54.66
27643;BME280;15053;48.618;10.024;2023-08-08T17:38:51;94319.78;;;18.43;54.64
27643;BME280;15053;48.618;10.024;2023-08-08T17:41:18;94317.34;;;18.38;55.24
27643;BME280;15053;48.618;10.024;2023-08-08T17:43:45;94322.53;;;18.34;55.30
27643;BME280;15053;48.618;10.024;2023-08-08T17:46:11;94325.06;;;18.31;55.54
27643;BME280;15053;48.618;10.024;2023-08-08T17:48:38;94323.53;;;18.29;55.82
27643;BME280;15053;48.618;10.024;2023-08-08T17:51:04;94320.88;;;18.29;55.97
27643;BME280;15053;48.618;10.024;2023-08-08T17:53:32;94314.88;;;18.29;55.96
27643;BME280;15053;48.618;10.024;2023-08-08T17:55:59;94313.66;;;18.26;56.17
27643;BME280;15053;48.618;10.024;2023-08-08T17:58:25;94310.91;;;18.23;56.46
27643;BME280;15053;48.618;10.024;2023-08-08T18:00:52;94312.00;;;18.22;56.88
27643;BME280;15053;48.618;10.024;2023-08-08T18:03:19;94310.03;;;18.19;56.75
27643;BME280;15053;48.618;10.024;2023-08-08T18:05:46;94306.97;;;18.17;56.81
27643;BME280;15053;48.618;10.024;2023-08-08T18:08:13;94315.22;;;18.15;56.84
27643;BME280;15053;48.618;10.024;2023-08-08T18:10:40;94321.47;;;18.11;56.99
27643;BME280;15053;48.618;10.024;2023-08-08T18:13:07;94314.81;;;18.01;57.73
27643;BME280;15053;48.618;10.024;2023-08-08T18:15:35;94323.47;;;18.02;57.92
27643;BME280;15053;48.618;10.024;2023-08-08T18:18:03;94326.00;;;17.98;58.06
27643;BME280;15053;48.618;10.024;2023-08-08T18:20:31;94315.34;;;17.95;58.46
27643;BME280;15053;48.618;10.024;2023-08-08T18:22:58;94323.91;;;17.92;58.50
27643;BME280;15053;48.618;10.024;2023-08-08T18:25:25;94314.38;;;17.87;58.42
27643;BME280;15053;48.618;10.024;2023-08-08T18:27:51;94324.03;;;17.83;58.73
27643;BME280;15053;48.618;10.024;2023-08-08T18:30:18;94328.09;;;17.81;59.18
27643;BME280;15053;48.618;10.024;2023-08-08T18:32:46;94325.34;;;17.77;59.27
27643;BME280;15053;48.618;10.024;2023-08-08T18:35:13;94328.97;;;17.73;59.29
27643;BME280;15053;48.618;10.024;2023-08-08T18:37:39;94317.09;;;17.66;59.51
27643;BME280;15053;48.618;10.024;2023-08-08T18:40:07;94315.81;;;17.60;59.78
27643;BME280;15053;48.618;10.024;2023-08-08T18:42:36;94317.97;;;17.58;59.92
27643;BME280;15053;48.618;10.024;2023-08-08T18:45:03;94310.28;;;17.53;59.81
27643;BME280;15053;48.618;10.024;2023-08-08T18:47:30;94316.84;;;17.47;60.16
27643;BME280;15053;48.618;10.024;2023-08-08T18:49:57;94317.47;;;17.44;60.42
27643;BME280;15053;48.618;10.024;2023-08-08T18:52:23;94321.88;;;17.40;60.51
27643;BME280;15053;48.618;10.024;2023-08-08T18:54:50;94319.47;;;17.35;60.82
27643;BME280;15053;48.618;10.024;2023-08-08T18:57:16;94313.53;;;17.26;60.98
27643;BME280;15053;48.618;10.024;2023-08-08T18:59:43;94315.84;;;17.28;60.96
27643;BME280;15053;48.618;10.024;2023-08-08T19:02:09;94315.72;;;17.24;60.96
27643;BME280;15053;48.618;10.024;2023-08-08T19:04:36;94314.50;;;17.22;60.95
27643;BME280;15053;48.618;10.024;2023-08-08T19:07:02;94315.47;;;17.17;61.17
27643;BME280;15053;48.618;10.024;2023-08-08T19:09:29;94315.81;;;17.16;60.88
27643;BME280;15053;48.618;10.024;2023-08-08T19:11:56;94319.84;;;17.13;60.98
27643;BME280;15053;48.618;10.024;2023-08-08T19:14:22;94321.28;;;17.10;61.19
27643;BME280;15053;48.618;10.024;2023-08-08T19:16:49;94332.47;;;17.07;61.60
27643;BME280;15053;48.618;10.024;2023-08-08T19:19:15;94330.81;;;17.03;61.39
27643;BME280;15053;48.618;10.024;2023-08-08T19:21:42;94326.50;;;16.98;61.64
27643;BME280;15053;48.618;10.024;2023-08-08T19:24:08;94332.09;;;16.97;61.79
27643;BME280;15053;48.618;10.024;2023-08-08T19:26:35;94330.13;;;16.94;61.93
27643;BME280;15053;48.618;10.024;2023-08-08T19:29:01;94336.03;;;16.91;61.85
27643;BME280;15053;48.618;10.024;2023-08-08T19:31:28;94334.03;;;16.88;62.18
27643;BME280;15053;48.618;10.024;2023-08-08T19:33:55;94338.09;;;16.85;62.22
27643;BME280;15053;48.618;10.024;2023-08-08T19:36:32;94342.13;;;16.83;62.43
27643;BME280;15053;48.618;10.024;2023-08-08T19:38:59;94340.16;;;16.80;62.88
27643;BME280;15053;48.618;10.024;2023-08-08T19:41:26;94341.22;;;16.79;63.00
27643;BME280;15053;48.618;10.024;2023-08-08T19:43:52;94336.75;;;16.79;63.01
27643;BME280;15053;48.618;10.024;2023-08-08T19:46:19;94336.75;;;16.79;63.27
27643;BME280;15053;48.618;10.024;2023-08-08T19:48:46;94334.75;;;16.76;63.55
27643;BME280;15053;48.618;10.024;2023-08-08T19:51:14;94327.19;;;16.75;63.69
27643;BME280;15053;48.618;10.024;2023-08-08T19:53:41;94320.59;;;16.69;63.84
27643;BME280;15053;48.618;10.024;2023-08-08T19:56:08;94321.66;;;16.68;64.14
27643;BME280;15053;48.618;10.024;2023-08-08T19:58:35;94325.41;;;16.67;64.34
27643;BME280;15053;48.618;10.024;2023-08-08T20:01:01;94326.94;;;16.68;64.39
27643;BME280;15053;48.618;10.024;2023-08-08T20:03:28;94336.22;;;16.65;64.65
27643;BME280;15053;48.618;10.024;2023-08-08T20:05:55;94337.22;;;16.61;64.61
27643;BME280;15053;48.618;10.024;2023-08-08T20:08:21;94331.50;;;16.59;64.88
27643;BME280;15053;48.618;10.024;2023-08-08T20:10:48;94330.28;;;16.56;65.18
27643;BME280;15053;48.618;10.024;2023-08-08T20:13:14;94337.41;;;16.56;65.15
27643;BME280;15053;48.618;10.024;2023-08-08T20:15:41;94342.66;;;16.56;65.26
27643;BME280;15053;48.618;10.024;2023-08-08T20:18:08;94338.50;;;16.55;65.28
27643;BME280;15053;48.618;10.024;2023-08-08T20:20:34;94332.47;;;16.54;65.52
27643;BME280;15053;48.618;10.024;2023-08-08T20:23:01;94339.88;;;16.52;65.41
27643;BME280;15053;48.618;10.024;2023-08-08T20:25:28;94339.88;;;16.52;65.59
27643;BME280;15053;48.618;10.024;2023-08-08T20:27:54;94337.25;;;16.52;65.54
27643;BME280;15053;48.618;10.024;2023-08-08T20:30:21;94330.13;;;16.52;65.70
27643;BME280;15053;48.618;10.024;2023-08-08T20:32:47;94330.13;;;16.52;65.75
27643;BME280;15053;48.618;10.024;2023-08-08T20:35:14;94333.06;;;16.51;65.76
27643;BME280;15053;48.618;10.024;2023-08-08T20:37:40;94337.56;;;16.50;65.87
27643;BME280;15053;48.618;10.024;2023-08-08T20:40:07;94327.81;;;16.51;65.88
27643;BME280;15053;48.618;10.024;2023-08-08T20:42:34;94333.41;;;16.49;65.99
27643;BME280;15053;48.618;10.024;2023-08-08T20:45:00;94321.66;;;16.47;66.17
27643;BME280;15053;48.618;10.024;2023-08-08T20:47:27;94328.78;;;16.46;66.18
27643;BME280;15053;48.618;10.024;2023-08-08T20:49:53;94329.41;;;16.43;66.23
27643;BME280;15053;48.618;10.024;2023-08-08T20:52:20;94327.44;;;16.40;66.36
27643;BME280;15053;48.618;10.024;2023-08-08T20:54:46;94325.44;;;16.37;66.55
27643;BME280;15053;48.618;10.024;2023-08-08T20:57:13;94323.78;;;16.33;66.59